createdAt,value
2023-04-11T00:00:12.156Z,87.39
2023-04-11T00:01:14.610Z,87.56
2023-04-11T00:02:16.960Z,87.44
2023-04-11T00:03:20.305Z,87.65
2023-04-11T00:04:22.986Z,87.81
2023-04-11T00:05:26.439Z,87.63
2023-04-11T00:06:28.626Z,87.86
2023-04-11T00:07:30.894Z,87.75
2023-04-11T00:08:33.050Z,87.89
2023-04-11T00:09:35.752Z,88.15
2023-04-11T00:10:38.037Z,88.16
2023-04-11T00:11:40.189Z,88.05
2023-04-11T00:12:42.304Z,88.29
2023-04-11T00:13:45.410Z,87.88
2023-04-11T00:14:49.108Z,87.80
2023-04-11T00:15:55.166Z,88.05
2023-04-11T00:16:57.405Z,88.79
2023-04-11T00:17:59.643Z,89.10
2023-04-11T00:19:01.908Z,89.12
2023-04-11T00:20:07.781Z,88.94
2023-04-11T00:21:10.549Z,88.80
2023-04-11T00:22:13.888Z,89.16
2023-04-11T00:23:16.191Z,88.81
2023-04-11T00:24:18.440Z,88.81
2023-04-11T00:25:20.752Z,88.66
2023-04-11T00:26:22.975Z,88.66
2023-04-11T00:27:25.089Z,88.93
2023-04-11T00:28:27.455Z,89.25
2023-04-11T00:29:29.711Z,89.06
2023-04-11T00:30:32.013Z,88.81
2023-04-11T00:31:34.653Z,88.77
2023-04-11T00:32:36.990Z,88.40
2023-04-11T00:33:40.899Z,88.72
2023-04-11T00:34:43.211Z,88.55
2023-04-11T00:35:45.806Z,88.42
2023-04-11T00:36:48.697Z,88.48
2023-04-11T00:37:56.137Z,88.35
2023-04-11T00:38:58.611Z,88.28
2023-04-11T00:40:01.203Z,88.44
2023-04-11T00:41:03.388Z,88.26
2023-04-11T00:42:07.201Z,88.43
2023-04-11T00:43:09.589Z,88.53
2023-04-11T00:44:11.836Z,88.34
2023-04-11T00:45:14.096Z,88.52
2023-04-11T00:46:17.283Z,88.41
2023-04-11T00:47:19.776Z,88.23
2023-04-11T00:48:23.520Z,88.09
2023-04-11T00:49:26.162Z,88.41
2023-04-11T00:50:28.559Z,88.50
2023-04-11T00:51:30.884Z,88.52
2023-04-11T00:52:33.223Z,88.73
2023-04-11T00:53:37.063Z,89.22
2023-04-11T00:54:39.571Z,89.61
2023-04-11T00:55:41.822Z,89.26
2023-04-11T00:56:44.130Z,89.25
2023-04-11T00:57:46.462Z,89.14
2023-04-11T00:58:48.887Z,88.88
2023-04-11T00:59:51.627Z,88.97
2023-04-11T01:00:54.228Z,88.89
2023-04-11T01:01:57.305Z,89.12
2023-04-11T01:02:59.882Z,89.53
2023-04-11T01:04:02.581Z,89.36
2023-04-11T01:05:06.032Z,89.49
2023-04-11T01:06:09.646Z,89.02
2023-04-11T01:07:12.165Z,89.38
2023-04-11T01:08:14.827Z,89.29
2023-04-11T01:09:17.461Z,89.29
2023-04-11T01:10:19.658Z,89.67
2023-04-11T01:11:21.949Z,89.45
2023-04-11T01:12:24.240Z,89.57
2023-04-11T01:13:26.441Z,89.64
2023-04-11T01:14:29.003Z,89.40
2023-04-11T01:15:31.377Z,89.39
2023-04-11T01:16:33.677Z,89.15
2023-04-11T01:17:35.932Z,88.69
2023-04-11T01:18:38.145Z,88.55
2023-04-11T01:19:40.652Z,88.63
2023-04-11T01:20:42.920Z,88.51
2023-04-11T01:21:46.070Z,88.54
2023-04-11T01:22:49.506Z,88.66
2023-04-11T01:23:54.296Z,88.75
2023-04-11T01:24:56.444Z,88.84
2023-04-11T01:25:58.497Z,88.47
2023-04-11T01:27:01.843Z,88.82
2023-04-11T01:28:04.148Z,88.40
2023-04-11T01:29:06.473Z,88.69
2023-04-11T01:30:09.191Z,88.61
2023-04-11T01:31:12.110Z,88.69
2023-04-11T01:32:14.360Z,88.76
2023-04-11T01:33:16.552Z,88.78
2023-04-11T01:34:19.185Z,89.07
2023-04-11T01:35:21.363Z,89.12
2023-04-11T01:36:23.579Z,88.96
2023-04-11T01:37:25.819Z,88.87
2023-04-11T01:38:27.916Z,89.03
2023-04-11T01:39:30.292Z,89.55
2023-04-11T01:40:35.479Z,89.95
2023-04-11T01:41:38.129Z,90.31
2023-04-11T01:42:40.463Z,90.19
2023-04-11T01:43:43.476Z,90.34
2023-04-11T01:44:46.020Z,90.19
2023-04-11T01:45:48.196Z,89.93
2023-04-11T01:46:51.280Z,89.98
2023-04-11T01:47:54.701Z,89.82
2023-04-11T01:48:58.319Z,89.93
2023-04-11T01:50:01.198Z,90.21
2023-04-11T01:51:03.619Z,90.26
2023-04-11T01:52:05.908Z,90.21
2023-04-11T01:53:08.082Z,90.00
2023-04-11T01:54:10.383Z,89.79
2023-04-11T01:55:12.523Z,90.03
2023-04-11T01:56:14.757Z,89.95
2023-04-11T01:57:17.212Z,89.88
2023-04-11T01:58:19.346Z,89.71
2023-04-11T01:59:21.474Z,89.54
2023-04-11T02:00:24.175Z,89.53
2023-04-11T02:01:26.773Z,89.29
2023-04-11T02:02:29.246Z,89.22
2023-04-11T02:03:31.887Z,89.30
2023-04-11T02:04:34.125Z,89.12
2023-04-11T02:05:36.323Z,89.15
2023-04-11T02:06:38.777Z,89.34
2023-04-11T02:07:41.255Z,89.31
2023-04-11T02:08:43.966Z,89.54
2023-04-11T02:09:46.205Z,89.47
2023-04-11T02:10:48.276Z,89.57
2023-04-11T02:11:50.429Z,89.68
2023-04-11T02:12:52.609Z,89.54
2023-04-11T02:13:54.844Z,89.84
2023-04-11T02:14:57.040Z,89.83
2023-04-11T02:16:06.165Z,89.74
2023-04-11T02:17:10.044Z,90.49
2023-04-11T02:18:12.368Z,90.49
2023-04-11T02:19:14.511Z,90.15
2023-04-11T02:20:16.934Z,90.09
2023-04-11T02:21:19.053Z,90.42
2023-04-11T02:22:21.178Z,90.21
2023-04-11T02:23:24.167Z,90.34
2023-04-11T02:24:28.363Z,90.04
2023-04-11T02:25:31.334Z,90.25
2023-04-11T02:26:33.449Z,90.15
2023-04-11T02:27:35.788Z,90.18
2023-04-11T02:28:37.953Z,90.00
2023-04-11T02:29:40.077Z,89.77
2023-04-11T02:30:42.308Z,89.62
2023-04-11T02:31:44.571Z,89.67
2023-04-11T02:32:49.477Z,89.43
2023-04-11T02:33:51.770Z,89.27
2023-04-11T02:34:54.063Z,89.15
2023-04-11T02:35:56.255Z,89.28
2023-04-11T02:36:58.390Z,89.46
2023-04-11T02:38:00.718Z,89.71
2023-04-11T02:39:02.968Z,90.17
2023-04-11T02:40:05.765Z,90.00
2023-04-11T02:41:08.555Z,89.68
2023-04-11T02:42:12.660Z,89.60
2023-04-11T02:43:15.929Z,89.53
2023-04-11T02:44:19.200Z,89.70
2023-04-11T02:45:21.919Z,89.93
2023-04-11T02:46:24.116Z,89.80
2023-04-11T02:47:26.402Z,89.58
2023-04-11T02:48:28.592Z,89.57
2023-04-11T02:49:30.744Z,89.76
2023-04-11T02:50:32.942Z,89.58
2023-04-11T02:51:35.149Z,89.73
2023-04-11T02:52:39.375Z,89.66
2023-04-11T02:53:41.562Z,90.05
2023-04-11T02:54:44.070Z,90.05
2023-04-11T02:55:46.710Z,90.11
2023-04-11T02:56:48.913Z,89.94
2023-04-11T02:57:51.364Z,89.65
2023-04-11T02:58:53.606Z,89.61
2023-04-11T02:59:55.878Z,89.48
2023-04-11T03:00:58.039Z,89.31
2023-04-11T03:02:01.319Z,89.10
2023-04-11T03:03:03.858Z,89.08
2023-04-11T03:04:07.423Z,89.86
2023-04-11T03:05:09.842Z,90.50
2023-04-11T03:06:12.108Z,90.58
2023-04-11T03:07:14.255Z,91.42
2023-04-11T03:08:16.422Z,91.38
2023-04-11T03:09:19.499Z,91.13
2023-04-11T03:10:21.757Z,91.13
2023-04-11T03:11:23.931Z,90.99
2023-04-11T03:12:26.473Z,90.76
2023-04-11T03:13:28.922Z,90.76
2023-04-11T03:14:31.128Z,90.48
2023-04-11T03:15:33.326Z,90.31
2023-04-11T03:16:35.835Z,90.11
2023-04-11T03:17:38.076Z,90.10
2023-04-11T03:18:40.270Z,89.97
2023-04-11T03:19:42.396Z,90.20
2023-04-11T03:20:44.972Z,90.14
2023-04-11T03:21:47.127Z,90.33
2023-04-11T03:22:49.559Z,90.35
2023-04-11T03:23:51.953Z,89.79
2023-04-11T03:24:54.111Z,89.83
2023-04-11T03:25:56.599Z,89.89
2023-04-11T03:26:58.852Z,89.90
2023-04-11T03:28:01.724Z,89.97
2023-04-11T03:29:03.970Z,90.30
2023-04-11T03:30:06.811Z,91.01
2023-04-11T03:31:09.005Z,91.33
2023-04-11T03:32:11.241Z,91.11
2023-04-11T03:33:13.548Z,90.98
2023-04-11T03:34:16.112Z,90.40
2023-04-11T03:35:20.517Z,90.55
2023-04-11T03:36:23.138Z,90.38
2023-04-11T03:37:25.379Z,90.27
2023-04-11T03:38:27.549Z,90.12
2023-04-11T03:39:29.747Z,90.16
2023-04-11T03:40:31.929Z,90.00
2023-04-11T03:41:34.077Z,89.90
2023-04-11T03:42:36.522Z,89.95
2023-04-11T03:43:38.706Z,89.71
2023-04-11T03:44:41.072Z,89.78
2023-04-11T03:45:43.361Z,89.37
2023-04-11T03:46:45.611Z,89.65
2023-04-11T03:47:48.146Z,89.70
2023-04-11T03:48:50.565Z,89.09
2023-04-11T03:49:52.765Z,88.57
2023-04-11T03:50:55.588Z,88.49
2023-04-11T03:51:57.994Z,88.73
2023-04-11T03:53:00.240Z,89.06
2023-04-11T03:54:02.377Z,88.99
2023-04-11T03:55:06.170Z,89.40
2023-04-11T03:56:09.132Z,89.65
2023-04-11T03:57:11.831Z,89.61
2023-04-11T03:58:13.934Z,89.34
2023-04-11T03:59:16.079Z,89.36
2023-04-11T04:00:20.114Z,88.92
2023-04-11T04:01:22.346Z,89.34
2023-04-11T04:02:24.675Z,89.37
2023-04-11T04:03:27.356Z,89.38
2023-04-11T04:04:30.243Z,89.49
2023-04-11T04:05:32.595Z,88.96
2023-04-11T04:06:35.837Z,88.68
2023-04-11T04:07:38.145Z,88.63
2023-04-11T04:08:40.898Z,88.62
2023-04-11T04:09:43.153Z,88.70
2023-04-11T04:10:47.084Z,88.65
2023-04-11T04:11:49.222Z,88.67
2023-04-11T04:12:53.934Z,88.85
2023-04-11T04:13:56.461Z,88.95
2023-04-11T04:14:58.826Z,88.79
2023-04-11T04:16:03.472Z,88.81
2023-04-11T04:17:06.004Z,88.67
2023-04-11T04:18:08.266Z,88.30
2023-04-11T04:19:10.679Z,88.10
2023-04-11T04:20:12.990Z,88.25
2023-04-11T04:21:15.616Z,88.49
2023-04-11T04:22:17.950Z,88.11
2023-04-11T04:23:23.918Z,88.19
2023-04-11T04:24:26.217Z,88.25
2023-04-11T04:25:28.420Z,88.12
2023-04-11T04:26:31.473Z,88.24
2023-04-11T04:27:33.659Z,88.39
2023-04-11T04:28:35.818Z,88.22
2023-04-11T04:29:38.811Z,88.41
2023-04-11T04:30:41.632Z,88.51
2023-04-11T04:31:44.577Z,88.40
2023-04-11T04:32:46.784Z,88.49
2023-04-11T04:33:49.578Z,88.47
2023-04-11T04:34:55.477Z,88.48
2023-04-11T04:36:00.255Z,88.37
2023-04-11T04:37:02.678Z,88.31
2023-04-11T04:38:06.494Z,88.45
2023-04-11T04:39:09.983Z,88.23
2023-04-11T04:40:14.046Z,88.17
2023-04-11T04:41:16.246Z,88.63
2023-04-11T04:42:18.502Z,88.84
2023-04-11T04:43:23.059Z,88.88
2023-04-11T04:44:25.365Z,88.92
2023-04-11T04:45:27.651Z,88.80
2023-04-11T04:46:36.736Z,88.80
2023-04-11T04:47:39.019Z,88.80
2023-04-11T04:48:41.451Z,88.69
2023-04-11T04:49:44.365Z,88.51
2023-04-11T04:50:46.533Z,88.36
2023-04-11T04:51:48.944Z,88.34
2023-04-11T04:52:51.205Z,88.12
2023-04-11T04:53:53.409Z,87.89
2023-04-11T04:54:58.096Z,87.91
2023-04-11T04:56:01.446Z,87.95
2023-04-11T04:57:03.722Z,88.18
2023-04-11T04:58:05.920Z,87.97
2023-04-11T04:59:08.392Z,87.91
2023-04-11T05:00:11.866Z,87.58
2023-04-11T05:01:14.142Z,86.97
2023-04-11T05:02:17.441Z,86.63
2023-04-11T05:03:21.081Z,86.66
2023-04-11T05:04:23.627Z,86.26
2023-04-11T05:05:26.062Z,85.75
2023-04-11T05:06:30.114Z,85.80
2023-04-11T05:07:32.305Z,85.50
2023-04-11T05:08:34.463Z,85.75
2023-04-11T05:09:37.064Z,85.66
2023-04-11T05:10:39.184Z,85.78
2023-04-11T05:11:41.343Z,85.26
2023-04-11T05:12:43.649Z,85.30
2023-04-11T05:13:45.992Z,85.21
2023-04-11T05:14:48.297Z,85.68
2023-04-11T05:15:51.256Z,85.80
2023-04-11T05:16:53.527Z,85.97
2023-04-11T05:17:55.733Z,86.01
2023-04-11T05:18:59.304Z,85.19
2023-04-11T05:20:01.458Z,84.25
2023-04-11T05:21:05.379Z,84.69
2023-04-11T05:22:07.581Z,84.44
2023-04-11T05:23:09.847Z,83.87
2023-04-11T05:24:12.111Z,82.69
2023-04-11T05:25:14.286Z,82.41
2023-04-11T05:26:16.733Z,82.12
2023-04-11T05:27:19.430Z,82.06
2023-04-11T05:28:21.608Z,81.75
2023-04-11T05:29:23.850Z,81.53
2023-04-11T05:30:26.221Z,81.71
2023-04-11T05:31:29.093Z,81.37
2023-04-11T05:32:31.234Z,81.14
2023-04-11T05:33:33.438Z,80.69
2023-04-11T05:34:51.158Z,81.09
2023-04-11T05:35:53.421Z,80.81
2023-04-11T05:36:55.702Z,80.56
2023-04-11T05:37:58.403Z,79.86
2023-04-11T05:39:01.079Z,80.70
2023-04-11T05:40:03.923Z,79.98
2023-04-11T05:41:06.393Z,80.17
2023-04-11T05:42:08.531Z,79.49
2023-04-11T05:43:15.209Z,79.77
2023-04-11T05:44:17.371Z,78.69
2023-04-11T05:45:19.880Z,78.96
2023-04-11T05:46:22.226Z,78.38
2023-04-11T05:47:24.433Z,77.66
2023-04-11T05:48:26.606Z,77.72
2023-04-11T05:49:28.774Z,77.16
2023-04-11T05:50:31.045Z,76.43
2023-04-11T05:51:33.226Z,76.26
2023-04-11T05:52:35.412Z,76.26
2023-04-11T05:53:37.675Z,76.20
2023-04-11T05:54:39.873Z,77.12
2023-04-11T05:55:41.980Z,76.82
2023-04-11T05:56:44.181Z,76.54
2023-04-11T05:57:46.392Z,76.30
2023-04-11T05:58:48.600Z,75.61
2023-04-11T05:59:53.005Z,74.80
2023-04-11T06:00:55.787Z,75.42
2023-04-11T06:01:58.885Z,74.35
2023-04-11T06:03:01.920Z,74.45
2023-04-11T06:04:04.478Z,73.53
2023-04-11T06:05:07.333Z,73.63
2023-04-11T06:06:09.553Z,73.38
2023-04-11T06:07:11.908Z,74.70
2023-04-11T06:08:14.244Z,73.80
2023-04-11T06:09:18.072Z,73.31
2023-04-11T06:10:20.445Z,72.96
2023-04-11T06:11:22.609Z,72.18
2023-04-11T06:12:24.715Z,72.98
2023-04-11T06:13:26.891Z,74.30
2023-04-11T06:14:29.062Z,72.36
2023-04-11T06:15:31.336Z,73.17
2023-04-11T06:16:35.550Z,72.72
2023-04-11T06:17:38.328Z,72.29
2023-04-11T06:18:40.551Z,72.01
2023-04-11T06:19:42.712Z,72.41
2023-04-11T06:20:46.404Z,71.63
2023-04-11T06:21:48.568Z,72.40
2023-04-11T06:22:53.908Z,72.28
2023-04-11T06:23:56.895Z,71.33
2023-04-11T06:24:59.208Z,71.96
2023-04-11T06:26:01.513Z,72.27
2023-04-11T06:27:03.971Z,72.14
2023-04-11T06:28:06.137Z,71.96
2023-04-11T06:29:08.384Z,70.06
2023-04-11T06:30:10.824Z,70.85
2023-04-11T06:31:13.024Z,71.11
2023-04-11T06:32:15.380Z,70.52
2023-04-11T06:33:17.580Z,70.50
2023-04-11T06:34:19.700Z,71.24
2023-04-11T06:35:24.917Z,71.17
2023-04-11T06:36:27.528Z,71.17
2023-04-11T06:37:29.683Z,70.70
2023-04-11T06:38:32.037Z,70.58
2023-04-11T06:39:34.856Z,69.87
2023-04-11T06:40:36.971Z,69.36
2023-04-11T06:41:39.128Z,69.19
2023-04-11T06:42:42.286Z,69.35
2023-04-11T06:43:44.610Z,68.27
2023-04-11T06:44:46.778Z,68.14
2023-04-11T06:45:49.724Z,67.22
2023-04-11T06:46:51.941Z,66.86
2023-04-11T06:47:54.285Z,67.01
2023-04-11T06:48:56.527Z,67.22
2023-04-11T06:49:59.364Z,67.07
2023-04-11T06:51:01.503Z,67.41
2023-04-11T06:52:03.710Z,67.96
2023-04-11T06:53:05.873Z,66.96
2023-04-11T06:54:08.132Z,66.73
2023-04-11T06:55:12.199Z,66.19
2023-04-11T06:56:14.356Z,65.45
2023-04-11T06:57:17.915Z,65.60
2023-04-11T06:58:20.115Z,65.93
2023-04-11T06:59:22.651Z,65.63
2023-04-11T07:00:26.475Z,65.43
2023-04-11T07:01:35.550Z,65.73
2023-04-11T07:02:39.373Z,65.52
2023-04-11T07:03:41.979Z,65.47
2023-04-11T07:04:44.525Z,65.01
2023-04-11T07:05:47.282Z,64.76
2023-04-11T07:06:49.411Z,64.19
2023-04-11T07:07:51.609Z,63.86
2023-04-11T07:08:53.859Z,64.20
2023-04-11T07:09:56.027Z,63.43
2023-04-11T07:10:58.160Z,63.33
2023-04-11T07:12:01.384Z,62.32
2023-04-11T07:13:03.551Z,61.80
2023-04-11T07:14:05.812Z,61.77
2023-04-11T07:15:09.039Z,61.67
2023-04-11T07:16:11.340Z,61.65
2023-04-11T07:17:13.598Z,61.96
2023-04-11T07:18:15.763Z,61.84
2023-04-11T07:19:17.934Z,61.69
2023-04-11T07:20:20.142Z,61.42
2023-04-11T07:21:22.317Z,60.77
2023-04-11T07:22:24.447Z,60.52
2023-04-11T07:23:26.552Z,58.73
2023-04-11T07:24:30.635Z,58.29
2023-04-11T07:25:33.892Z,58.81
2023-04-11T07:26:38.622Z,57.86
2023-04-11T07:27:43.909Z,57.08
2023-04-11T07:28:47.564Z,56.43
2023-04-11T07:29:49.887Z,56.35
2023-04-11T07:30:52.173Z,55.25
2023-04-11T07:31:54.590Z,55.63
2023-04-11T07:32:56.794Z,54.38
2023-04-11T07:33:59.083Z,54.39
2023-04-11T07:35:01.357Z,55.23
2023-04-11T07:36:04.708Z,55.31
2023-04-11T07:37:07.214Z,54.84
2023-04-11T07:38:10.333Z,55.27
2023-04-11T07:39:16.000Z,54.69
2023-04-11T07:40:26.011Z,55.16
2023-04-11T07:41:28.319Z,55.10
2023-04-11T07:42:30.679Z,55.63
2023-04-11T07:43:33.524Z,55.39
2023-04-11T07:44:35.771Z,55.15
2023-04-11T07:45:39.459Z,55.05
2023-04-11T07:46:41.696Z,54.83
2023-04-11T07:47:43.849Z,54.72
2023-04-11T07:48:46.024Z,54.59
2023-04-11T07:49:48.171Z,54.04
2023-04-11T07:50:50.344Z,54.36
2023-04-11T07:51:54.801Z,53.90
2023-04-11T07:52:57.642Z,53.08
2023-04-11T07:54:00.152Z,53.39
2023-04-11T07:55:03.024Z,53.52
2023-04-11T07:56:05.417Z,54.12
2023-04-11T07:57:07.558Z,53.83
2023-04-11T07:58:09.690Z,54.36
2023-04-11T07:59:16.039Z,54.00
2023-04-11T08:00:22.992Z,54.90
2023-04-11T08:01:27.093Z,54.81
2023-04-11T08:02:29.442Z,54.60
2023-04-11T08:03:32.151Z,54.75
2023-04-11T08:04:35.253Z,54.11
2023-04-11T08:05:37.758Z,53.98
2023-04-11T08:06:39.984Z,54.55
2023-04-11T08:07:42.240Z,53.87
2023-04-11T08:08:45.132Z,53.84
2023-04-11T08:09:47.348Z,54.51
2023-04-11T08:10:51.929Z,54.41
2023-04-11T08:11:54.977Z,53.87
2023-04-11T08:12:58.742Z,52.42
2023-04-11T08:14:01.003Z,52.11
2023-04-11T08:15:03.397Z,51.83
2023-04-11T08:16:10.518Z,51.92
2023-04-11T08:17:27.121Z,51.52
2023-04-11T08:18:31.346Z,51.87
2023-04-11T08:19:34.351Z,51.40
2023-04-11T08:20:36.685Z,51.10
2023-04-11T08:21:38.759Z,51.44
2023-04-11T08:22:44.519Z,51.46
2023-04-11T08:23:47.375Z,52.33
2023-04-11T08:24:49.666Z,51.79
2023-04-11T08:25:52.236Z,50.91
2023-04-11T08:26:54.459Z,50.26
2023-04-11T08:27:56.617Z,50.75
2023-04-11T08:28:58.744Z,51.23
2023-04-11T08:30:00.917Z,51.18
2023-04-11T08:31:05.069Z,50.65
2023-04-11T08:32:07.296Z,51.24
2023-04-11T08:33:10.314Z,51.54
2023-04-11T08:34:13.126Z,50.87
2023-04-11T08:35:15.407Z,51.33
2023-04-11T08:36:17.665Z,51.56
2023-04-11T08:37:19.893Z,51.98
2023-04-11T08:38:22.068Z,51.00
2023-04-11T08:39:24.251Z,49.98
2023-04-11T08:40:27.098Z,50.62
2023-04-11T08:41:30.846Z,50.06
2023-04-11T08:42:33.906Z,49.03
2023-04-11T08:43:37.787Z,48.90
2023-04-11T08:44:39.926Z,48.26
2023-04-11T08:45:42.546Z,47.90
2023-04-11T08:46:45.016Z,48.61
2023-04-11T08:47:47.170Z,48.69
2023-04-11T08:48:49.863Z,48.77
2023-04-11T08:49:52.953Z,48.34
2023-04-11T08:50:55.039Z,47.63
2023-04-11T08:51:57.289Z,48.42
2023-04-11T08:53:02.719Z,49.42
2023-04-11T08:54:05.886Z,49.69
2023-04-11T08:55:08.520Z,49.04
2023-04-11T08:56:19.263Z,49.04
2023-04-11T08:57:25.833Z,48.55
2023-04-11T08:58:28.552Z,48.20
2023-04-11T08:59:33.135Z,47.96
2023-04-11T09:00:35.310Z,49.04
2023-04-11T09:01:37.693Z,48.99
2023-04-11T09:02:56.827Z,49.02
2023-04-11T09:04:00.509Z,49.65
2023-04-11T09:05:02.824Z,49.49
2023-04-11T09:06:10.808Z,49.73
2023-04-11T09:07:14.036Z,49.24
2023-04-11T09:08:17.158Z,49.36
2023-04-11T09:09:29.916Z,49.27
2023-04-11T09:10:32.361Z,48.98
2023-04-11T09:11:54.846Z,48.84
2023-04-11T09:12:57.725Z,48.98
2023-04-11T09:14:07.569Z,48.81
2023-04-11T09:15:24.241Z,48.76
2023-04-11T09:16:26.394Z,48.10
2023-04-11T09:17:40.757Z,48.13
2023-04-11T09:18:44.931Z,49.19
2023-04-11T09:19:49.210Z,49.00
2023-04-11T09:21:01.298Z,49.40
2023-04-11T09:22:06.107Z,49.69
2023-04-11T09:23:22.098Z,49.20
2023-04-11T09:24:26.039Z,49.49
2023-04-11T09:25:28.214Z,48.61
2023-04-11T09:26:30.479Z,48.16
2023-04-11T09:27:32.799Z,47.58
2023-04-11T09:28:52.348Z,46.80
2023-04-11T09:29:54.541Z,46.96
2023-04-11T09:30:58.075Z,47.80
2023-04-11T09:32:00.262Z,49.03
2023-04-11T09:33:22.603Z,48.64
2023-04-11T09:34:27.384Z,49.12
2023-04-11T09:35:29.527Z,49.66
2023-04-11T09:36:31.661Z,49.42
2023-04-11T09:37:44.578Z,48.52
2023-04-11T09:38:46.830Z,48.02
2023-04-11T09:39:59.160Z,48.03
2023-04-11T09:41:02.500Z,48.00
2023-04-11T09:42:23.440Z,47.63
2023-04-11T09:43:25.832Z,48.26
2023-04-11T09:44:46.036Z,48.82
2023-04-11T09:45:54.544Z,47.95
2023-04-11T09:46:58.279Z,48.31
2023-04-11T09:48:00.508Z,46.76
2023-04-11T09:49:03.207Z,47.03
2023-04-11T09:50:06.211Z,46.76
2023-04-11T09:51:09.197Z,45.88
2023-04-11T09:52:11.711Z,44.81
2023-04-11T09:53:14.038Z,43.94
2023-04-11T09:54:16.414Z,42.65
2023-04-11T09:55:20.373Z,42.00
2023-04-11T09:56:24.123Z,41.86
2023-04-11T09:57:27.174Z,42.01
2023-04-11T09:58:33.466Z,42.19
2023-04-11T09:59:36.026Z,42.68
2023-04-11T10:00:41.043Z,43.45
2023-04-11T10:01:43.597Z,43.48
2023-04-11T10:02:55.861Z,43.62
2023-04-11T10:03:58.709Z,43.60
2023-04-11T10:05:04.360Z,43.19
2023-04-11T10:06:18.361Z,43.06
2023-04-11T10:07:21.248Z,42.38
2023-04-11T10:08:32.773Z,41.39
2023-04-11T10:09:38.928Z,41.16
2023-04-11T10:10:43.016Z,40.85
2023-04-11T10:11:46.122Z,40.83
2023-04-11T10:12:49.224Z,40.20
2023-04-11T10:13:51.625Z,41.00
2023-04-11T10:14:56.554Z,40.62
2023-04-11T10:16:18.618Z,40.68
2023-04-11T10:17:23.313Z,40.33
2023-04-11T10:18:26.630Z,41.21
2023-04-11T10:19:28.764Z,41.64
2023-04-11T10:20:50.417Z,44.67
2023-04-11T10:21:52.631Z,43.60
2023-04-11T10:22:58.894Z,43.35
2023-04-11T10:24:17.541Z,41.97
2023-04-11T10:25:21.389Z,40.90
2023-04-11T10:26:46.662Z,39.10
2023-04-11T10:27:49.545Z,38.98
2023-04-11T10:28:51.904Z,37.90
2023-04-11T10:29:54.221Z,38.34
2023-04-11T10:31:00.737Z,39.52
2023-04-11T10:32:14.773Z,38.07
2023-04-11T10:33:20.901Z,37.70
2023-04-11T10:34:23.011Z,38.48
2023-04-11T10:35:25.355Z,37.98
2023-04-11T10:36:27.685Z,37.54
2023-04-11T10:37:29.776Z,36.70
2023-04-11T10:38:43.733Z,36.64
2023-04-11T10:39:51.748Z,36.27
2023-04-11T10:41:16.038Z,37.16
2023-04-11T10:42:27.694Z,37.36
2023-04-11T10:43:29.923Z,37.79
2023-04-11T10:44:32.144Z,37.79
2023-04-11T10:45:39.896Z,37.00
2023-04-11T10:46:49.440Z,36.11
2023-04-11T10:47:51.727Z,35.22
2023-04-11T10:49:04.328Z,35.05
2023-04-11T10:50:31.473Z,36.79
2023-04-11T10:51:34.356Z,35.87
2023-04-11T10:52:38.265Z,35.45
2023-04-11T10:53:41.119Z,36.79
2023-04-11T10:54:44.593Z,37.20
2023-04-11T10:55:48.903Z,35.99
2023-04-11T10:56:54.830Z,36.95
2023-04-11T10:58:09.726Z,37.58
2023-04-11T10:59:34.456Z,36.92
2023-04-11T11:00:51.931Z,36.53
2023-04-11T11:02:01.814Z,37.25
2023-04-11T11:03:04.286Z,36.38
2023-04-11T11:04:07.243Z,35.54
2023-04-11T11:05:17.329Z,33.96
2023-04-11T11:06:20.862Z,33.38
2023-04-11T11:07:22.960Z,34.56
2023-04-11T11:08:33.284Z,34.86
2023-04-11T11:09:35.863Z,34.05
2023-04-11T11:10:48.335Z,32.64
2023-04-11T11:12:16.728Z,32.98
2023-04-11T11:13:18.814Z,33.42
2023-04-11T11:14:30.539Z,32.68
2023-04-11T11:15:37.970Z,32.81
2023-04-11T11:16:41.058Z,33.37
2023-04-11T11:17:43.686Z,35.29
2023-04-11T11:18:59.144Z,36.26
2023-04-11T11:20:01.670Z,36.32
2023-04-11T11:21:04.749Z,37.07
2023-04-11T11:22:17.157Z,35.90
2023-04-11T11:23:19.249Z,37.00
2023-04-11T11:24:25.412Z,34.01
2023-04-11T11:25:27.606Z,33.10
2023-04-11T11:26:36.816Z,32.85
2023-04-11T11:27:38.968Z,32.69
2023-04-11T11:28:48.495Z,33.84
2023-04-11T11:29:51.156Z,33.58
2023-04-11T11:30:55.838Z,33.06
2023-04-11T11:31:58.703Z,32.49
2023-04-11T11:33:14.956Z,31.43
2023-04-11T11:34:27.276Z,31.21
2023-04-11T11:35:29.477Z,31.86
2023-04-11T11:36:34.499Z,31.99
2023-04-11T11:37:36.744Z,33.26
2023-04-11T11:38:38.822Z,33.85
2023-04-11T11:39:40.986Z,34.56
2023-04-11T11:40:43.227Z,35.42
2023-04-11T11:41:45.965Z,35.24
2023-04-11T11:42:49.843Z,34.87
2023-04-11T11:43:51.927Z,34.56
2023-04-11T11:44:54.133Z,34.46
2023-04-11T11:46:14.637Z,34.14
2023-04-11T11:47:17.108Z,33.37
2023-04-11T11:48:25.534Z,34.91
2023-04-11T11:49:27.744Z,34.34
2023-04-11T11:50:31.448Z,33.68
2023-04-11T11:51:44.355Z,33.28
2023-04-11T11:52:48.786Z,32.64
2023-04-11T11:54:10.223Z,30.73
2023-04-11T11:55:18.418Z,30.40
2023-04-11T11:56:22.100Z,29.40
2023-04-11T11:57:24.199Z,27.77
2023-04-11T11:58:27.377Z,27.66
2023-04-11T11:59:29.580Z,28.41
2023-04-11T12:00:39.315Z,27.31
2023-04-11T12:01:43.360Z,27.73
2023-04-11T12:02:46.215Z,27.88
2023-04-11T12:03:51.646Z,27.52
2023-04-11T12:05:00.880Z,29.56
2023-04-11T12:06:03.141Z,31.62
2023-04-11T12:07:09.605Z,32.62
2023-04-11T12:08:12.074Z,33.48
2023-04-11T12:09:14.273Z,34.90
2023-04-11T12:10:17.460Z,35.06
2023-04-11T12:11:19.629Z,35.53
2023-04-11T12:12:21.754Z,35.55
2023-04-11T12:13:27.216Z,35.66
2023-04-11T12:14:29.605Z,35.80
2023-04-11T12:15:35.581Z,35.58
2023-04-11T12:16:38.334Z,35.76
2023-04-11T12:17:41.067Z,35.47
2023-04-11T12:18:43.841Z,34.79
2023-04-11T12:19:45.992Z,33.69
2023-04-11T12:20:48.450Z,33.74
2023-04-11T12:21:50.638Z,32.87
2023-04-11T12:22:54.592Z,32.73
2023-04-11T12:23:57.993Z,32.01
2023-04-11T12:25:11.440Z,32.17
2023-04-11T12:26:13.813Z,32.66
2023-04-11T12:27:16.267Z,32.74
2023-04-11T12:28:18.502Z,31.22
2023-04-11T12:29:20.663Z,30.35
2023-04-11T12:30:22.913Z,28.75
2023-04-11T12:31:25.831Z,28.72
2023-04-11T12:32:28.176Z,28.30
2023-04-11T12:33:30.647Z,27.99
2023-04-11T12:34:32.783Z,27.95
2023-04-11T12:35:34.926Z,26.88
2023-04-11T12:36:37.142Z,27.47
2023-04-11T12:37:39.342Z,28.38
2023-04-11T12:38:42.290Z,27.93
2023-04-11T12:39:44.422Z,28.16
2023-04-11T12:40:46.938Z,27.43
2023-04-11T12:41:49.046Z,27.27
2023-04-11T12:42:56.754Z,26.15
2023-04-11T12:44:02.227Z,25.82
2023-04-11T12:45:08.560Z,26.06
2023-04-11T12:46:11.654Z,26.47
2023-04-11T12:47:13.916Z,26.52
2023-04-11T12:48:16.077Z,28.86
2023-04-11T12:49:18.234Z,28.70
2023-04-11T12:50:23.218Z,30.09
2023-04-11T12:51:25.565Z,30.40
2023-04-11T12:52:28.486Z,31.85
2023-04-11T12:53:30.612Z,30.62
2023-04-11T12:54:33.542Z,30.41
2023-04-11T12:55:35.808Z,31.01
2023-04-11T12:56:38.404Z,29.82
2023-04-11T12:57:41.566Z,30.24
2023-04-11T12:58:44.992Z,30.45
2023-04-11T12:59:47.244Z,29.90
2023-04-11T13:00:49.434Z,30.50
2023-04-11T13:01:51.664Z,31.07
2023-04-11T13:02:54.696Z,30.73
2023-04-11T13:03:57.366Z,31.19
2023-04-11T13:05:02.625Z,32.64
2023-04-11T13:06:05.094Z,32.31
2023-04-11T13:07:07.206Z,32.22
2023-04-11T13:08:09.689Z,32.57
2023-04-11T13:09:12.570Z,32.54
2023-04-11T13:10:18.314Z,32.19
2023-04-11T13:11:20.415Z,32.71
2023-04-11T13:12:22.565Z,32.34
2023-04-11T13:13:24.771Z,32.43
2023-04-11T13:14:26.881Z,32.14
2023-04-11T13:15:29.047Z,31.31
2023-04-11T13:16:32.324Z,30.99
2023-04-11T13:17:35.174Z,30.50
2023-04-11T13:18:37.376Z,30.97
2023-04-11T13:19:39.443Z,31.04
2023-04-11T13:20:42.674Z,32.07
2023-04-11T13:21:44.806Z,32.97
2023-04-11T13:22:46.929Z,32.82
2023-04-11T13:23:49.005Z,33.08
2023-04-11T13:24:51.247Z,33.12
2023-04-11T13:25:53.318Z,32.71
2023-04-11T13:26:55.462Z,32.97
2023-04-11T13:27:57.884Z,33.33
2023-04-11T13:29:00.012Z,33.17
2023-04-11T13:30:04.706Z,33.63
2023-04-11T13:31:10.431Z,33.78
2023-04-11T13:32:12.598Z,34.03
2023-04-11T13:33:14.728Z,34.03
2023-04-11T13:34:17.071Z,33.69
2023-04-11T13:35:19.213Z,33.54
2023-04-11T13:36:21.440Z,33.67
2023-04-11T13:37:23.587Z,33.52
2023-04-11T13:38:26.057Z,33.14
2023-04-11T13:39:28.201Z,33.32
2023-04-11T13:40:30.454Z,32.86